Time;durP1;ratioP1;P1;durP2;ratioP2;P2;SDS_P1;SDS_P2;PMS_P1;PMS_P2;Temp;Humidity;BMP_temperature;BMP_pressure;BME280_temperature;BME280_humidity;BME280_pressure;Samples;Min_cycle;Max_cycle;Signal;HPM_P1;HPM_P2
2022/05/04 00:02:16;;;;;;;7.10;6.40;;;14.90;99.90;;;;;;10351291;28;20231;-70
2022/05/04 00:07:17;;;;;;;11.50;7.67;;;14.90;99.90;;;;;;10371578;28;20715;-71
2022/05/04 00:12:20;;;;;;;8.63;7.33;;;15.00;99.90;;;;;;10375268;28;20318;-70
2022/05/04 00:17:27;;;;;;;7.90;6.60;;;15.00;99.90;;;;;;10367652;28;20228;-71
2022/05/04 00:22:27;;;;;;;8.90;7.00;;;15.00;99.90;;;;;;10350037;28;20226;-71
2022/05/04 00:27:28;;;;;;;10.47;6.87;;;14.90;99.90;;;;;;10368498;28;20302;-72
2022/05/04 00:32:29;;;;;;;13.50;8.13;;;14.80;99.90;;;;;;10368373;28;20308;-70
2022/05/04 00:37:31;;;;;;;8.57;6.80;;;14.80;99.90;;;;;;10367293;28;20223;-70
2022/05/04 00:42:32;;;;;;;12.93;6.93;;;14.80;99.90;;;;;;10371683;28;20224;-72
2022/05/04 00:47:33;;;;;;;8.57;6.83;;;14.80;99.90;;;;;;10360770;28;20214;-71
2022/05/04 00:52:35;;;;;;;8.43;5.80;;;14.80;99.90;;;;;;10371858;28;20220;-71
2022/05/04 01:02:57;;;;;;;7.47;5.77;;;14.50;99.90;;;;;;10371259;28;20221;-71
2022/05/04 01:08:04;;;;;;;10.73;5.70;;;14.50;99.90;;;;;;10365106;28;20225;-71
2022/05/04 01:13:05;;;;;;;8.47;6.23;;;14.40;99.90;;;;;;10372442;28;20217;-71
2022/05/04 01:18:06;;;;;;;7.10;5.73;;;14.40;99.90;;;;;;10372377;28;20334;-71
2022/05/04 01:23:06;;;;;;;6.70;5.60;;;14.30;99.90;;;;;;10355344;28;20289;-71
2022/05/04 01:28:07;;;;;;;8.10;5.70;;;14.20;99.90;;;;;;10361698;28;20286;-71
2022/05/04 01:33:08;;;;;;;6.20;5.60;;;14.30;99.90;;;;;;10365674;28;20676;-71
2022/05/04 01:38:08;;;;;;;9.43;6.07;;;14.20;99.90;;;;;;10366164;28;20307;-72
2022/05/04 01:43:09;;;;;;;8.83;5.80;;;14.10;99.90;;;;;;10363173;28;20236;-71
2022/05/04 01:48:10;;;;;;;6.43;5.43;;;14.00;99.90;;;;;;10361205;28;20306;-72
2022/05/04 01:53:10;;;;;;;7.50;6.37;;;14.10;99.90;;;;;;10356577;28;20214;-70
2022/05/04 01:58:12;;;;;;;7.67;5.90;;;14.10;99.90;;;;;;10364735;28;20482;-70
2022/05/04 02:03:17;;;;;;;8.30;5.70;;;14.00;99.90;;;;;;10354911;28;20678;-71
2022/05/04 02:08:17;;;;;;;7.07;5.73;;;13.90;99.90;;;;;;10344012;28;20222;-71
2022/05/04 02:13:18;;;;;;;6.60;5.83;;;13.90;99.90;;;;;;10361995;28;20217;-70
2022/05/04 02:18:19;;;;;;;6.90;5.70;;;13.80;99.90;;;;;;10356263;28;20221;-71
2022/05/04 02:23:19;;;;;;;7.80;5.53;;;13.80;99.90;;;;;;10361105;28;20695;-70
2022/05/04 02:28:20;;;;;;;8.90;5.57;;;13.60;99.90;;;;;;10368104;28;20423;-70
2022/05/04 02:33:21;;;;;;;7.97;5.73;;;13.50;99.90;;;;;;10367976;28;20217;-71
2022/05/04 02:38:24;;;;;;;6.90;5.40;;;13.50;99.90;;;;;;10358027;28;20251;-71
2022/05/04 02:43:26;;;;;;;7.73;5.60;;;13.60;99.90;;;;;;10339324;28;20223;-71
2022/05/04 02:48:29;;;;;;;7.83;5.83;;;13.60;99.90;;;;;;10366831;28;20249;-70
2022/05/04 02:53:30;;;;;;;6.43;5.70;;;13.50;99.90;;;;;;10368690;28;20220;-71
2022/05/04 02:58:31;;;;;;;6.60;5.40;;;13.30;99.90;;;;;;10355724;28;20225;-71
2022/05/04 03:03:35;;;;;;;6.20;5.60;;;13.30;99.90;;;;;;10362685;28;20229;-71
2022/05/04 03:08:35;;;;;;;6.10;5.50;;;13.20;99.90;;;;;;10364025;28;20229;-72
2022/05/04 03:13:37;;;;;;;6.90;5.43;;;13.30;99.90;;;;;;10368972;28;20228;-73
2022/05/04 03:18:37;;;;;;;6.57;5.97;;;13.20;99.90;;;;;;10368681;28;20220;-70
2022/05/04 03:23:38;;;;;;;9.30;5.70;;;13.20;99.90;;;;;;10360950;28;20312;-71
2022/05/04 03:28:38;;;;;;;7.33;5.70;;;13.20;99.90;;;;;;10367395;28;20221;-71
2022/05/04 03:33:39;;;;;;;5.93;5.10;;;13.20;99.90;;;;;;10357990;28;20213;-71
2022/05/04 03:38:40;;;;;;;8.03;5.27;;;13.30;99.90;;;;;;10360469;28;20217;-72
2022/05/04 03:43:41;;;;;;;5.53;4.97;;;13.40;99.90;;;;;;10375651;28;20707;-72
2022/05/04 03:48:43;;;;;;;8.00;5.30;;;13.30;99.90;;;;;;10354104;28;20570;-71
2022/05/04 03:53:43;;;;;;;6.43;5.80;;;13.20;99.90;;;;;;10357346;28;20213;-71
2022/05/04 03:58:45;;;;;;;6.87;5.77;;;13.20;99.90;;;;;;10346669;28;20689;-71
2022/05/04 04:03:46;;;;;;;5.90;5.20;;;13.20;99.90;;;;;;10379914;28;20217;-71
2022/05/04 04:08:47;;;;;;;7.37;5.70;;;13.20;99.90;;;;;;10369532;28;20239;-70
2022/05/04 04:13:48;;;;;;;8.03;6.30;;;13.20;99.90;;;;;;10370181;28;20305;-71
2022/05/04 04:18:49;;;;;;;7.90;5.93;;;13.20;99.90;;;;;;10365488;28;20316;-71
2022/05/04 04:23:49;;;;;;;7.67;5.70;;;13.20;99.90;;;;;;10369352;28;20639;-70
2022/05/04 04:28:50;;;;;;;8.40;5.70;;;13.30;99.90;;;;;;10351533;28;20283;-71
2022/05/04 04:33:50;;;;;;;7.73;6.50;;;13.40;99.90;;;;;;10371317;28;20245;-70
2022/05/04 04:38:51;;;;;;;7.00;6.30;;;13.40;99.90;;;;;;10365606;28;20229;-71
2022/05/04 04:43:53;;;;;;;7.00;6.00;;;13.50;99.90;;;;;;10366129;28;20994;-73
2022/05/04 04:48:54;;;;;;;10.20;6.50;;;13.50;99.90;;;;;;10373513;28;20602;-72
2022/05/04 04:53:54;;;;;;;7.40;6.10;;;13.60;99.90;;;;;;10357839;28;20217;-72
2022/05/04 04:58:55;;;;;;;11.97;7.67;;;13.70;99.90;;;;;;10359505;28;20669;-72
2022/05/04 05:03:55;;;;;;;10.37;8.17;;;13.90;99.90;;;;;;10355685;28;20461;-71
2022/05/04 05:08:56;;;;;;;8.30;6.93;;;14.10;99.90;;;;;;10347962;28;20233;-71
2022/05/04 05:19:16;;;;;;;16.83;11.70;;;14.40;99.90;;;;;;10372941;28;20221;-71
2022/05/04 05:24:16;;;;;;;10.57;7.07;;;14.50;99.90;;;;;;10358824;28;20305;-72
2022/05/04 05:29:17;;;;;;;10.83;7.40;;;14.60;99.90;;;;;;10345421;28;20247;-71
2022/05/04 05:34:20;;;;;;;14.77;8.90;;;14.60;99.90;;;;;;10366684;28;20216;-71
2022/05/04 05:39:21;;;;;;;8.20;7.17;;;14.50;99.90;;;;;;10368286;28;20273;-71
2022/05/04 05:44:22;;;;;;;13.10;7.17;;;14.50;99.90;;;;;;10360455;28;20213;-71
2022/05/04 05:49:25;;;;;;;8.00;7.20;;;14.50;99.90;;;;;;10362900;28;20236;-70
2022/05/04 05:54:26;;;;;;;7.47;6.57;;;14.50;99.90;;;;;;10343797;28;20313;-70
2022/05/04 05:59:27;;;;;;;9.87;7.43;;;14.60;99.90;;;;;;10347539;28;20242;-68
2022/05/04 06:04:27;;;;;;;8.13;7.27;;;14.50;99.90;;;;;;10365517;28;20704;-72
2022/05/04 06:09:28;;;;;;;9.37;7.40;;;14.50;99.90;;;;;;10356473;28;20895;-69
2022/05/04 06:14:29;;;;;;;12.57;7.17;;;14.60;99.90;;;;;;10348826;28;20215;-69
2022/05/04 06:19:29;;;;;;;8.13;7.00;;;14.60;99.90;;;;;;10355747;28;20308;-70
2022/05/04 06:24:30;;;;;;;9.23;7.43;;;14.60;99.90;;;;;;10363527;28;20595;-70
2022/05/04 06:34:50;;;;;;;8.80;7.37;;;14.40;99.90;;;;;;10344221;28;20249;-70
2022/05/04 06:39:51;;;;;;;9.07;7.13;;;14.50;99.90;;;;;;10359378;28;20225;-69
2022/05/04 06:44:51;;;;;;;12.47;7.57;;;14.40;99.90;;;;;;10346789;28;20304;-70
2022/05/04 06:49:52;;;;;;;12.33;8.30;;;14.30;99.90;;;;;;10367381;28;20659;-69
2022/05/04 06:54:53;;;;;;;11.80;7.27;;;14.30;99.90;;;;;;10368318;28;20227;-69
2022/05/04 06:59:54;;;;;;;8.83;6.73;;;14.50;99.90;;;;;;10367099;28;20316;-68
2022/05/04 07:04:55;;;;;;;10.27;7.37;;;14.70;99.90;;;;;;10359236;28;20230;-67
2022/05/04 07:09:55;;;;;;;11.97;7.63;;;15.00;99.90;;;;;;10359623;28;20327;-68
2022/05/04 07:14:56;;;;;;;11.83;8.20;;;15.10;99.90;;;;;;10369877;28;20234;-69
2022/05/04 07:19:57;;;;;;;9.50;8.33;;;15.20;99.90;;;;;;10356696;28;20637;-72
2022/05/04 07:24:58;;;;;;;13.53;8.67;;;15.20;99.90;;;;;;10361136;28;20224;-70
2022/05/04 07:30:00;;;;;;;11.23;8.53;;;15.50;99.90;;;;;;10367698;28;20228;-70
2022/05/04 07:35:00;;;;;;;15.40;7.27;;;16.10;99.90;;;;;;10349199;28;20215;-70
2022/05/04 07:45:20;;;;;;;15.80;8.63;;;19.20;99.90;;;;;;10367390;28;20225;-70
2022/05/04 07:50:21;;;;;;;9.70;7.80;;;18.80;98.10;;;;;;10359526;28;20241;-70
2022/05/04 07:55:23;;;;;;;11.40;8.40;;;18.20;99.00;;;;;;10359629;28;20193;-71
2022/05/04 08:05:44;;;;;;;11.77;8.30;;;18.70;98.00;;;;;;10380178;28;20225;-70
2022/05/04 08:10:44;;;;;;;9.70;7.87;;;19.00;97.90;;;;;;10388961;28;20229;-70
2022/05/04 08:15:46;;;;;;;13.30;7.43;;;19.90;94.60;;;;;;10378546;28;20233;-69
2022/05/04 08:20:48;;;;;;;12.37;7.17;;;20.50;93.60;;;;;;10373679;28;20221;-70
2022/05/04 08:25:50;;;;;;;12.40;8.17;;;20.50;91.60;;;;;;10370403;28;20292;-71
2022/05/04 08:30:52;;;;;;;13.30;7.87;;;20.00;92.20;;;;;;10372768;28;20233;-70
2022/05/04 08:35:52;;;;;;;10.30;7.37;;;20.10;92.10;;;;;;10344587;28;20226;-69
2022/05/04 08:40:55;;;;;;;10.43;7.47;;;20.80;90.30;;;;;;10352731;28;20312;-68
2022/05/04 08:45:59;;;;;;;12.90;8.77;;;20.90;88.90;;;;;;10358683;28;20593;-68
2022/05/04 08:51:02;;;;;;;13.00;8.50;;;21.30;86.60;;;;;;10362871;28;20238;-71
2022/05/04 08:56:03;;;;;;;11.43;7.97;;;21.40;84.20;;;;;;10345823;28;20696;-70
2022/05/04 09:01:05;;;;;;;12.87;7.37;;;21.40;82.80;;;;;;10353329;28;20233;-70
2022/05/04 09:06:05;;;;;;;8.73;7.30;;;21.90;80.10;;;;;;10361851;28;20225;-73
2022/05/04 09:11:15;;;;;;;8.43;6.00;;;22.40;77.00;;;;;;10342877;28;20328;-70
2022/05/04 09:16:36;;;;;;;11.90;8.07;;;22.50;75.60;;;;;;10346375;28;20215;-70
2022/05/04 09:21:39;;;;;;;8.97;6.70;;;23.70;70.50;;;;;;10350582;28;20220;-70
2022/05/04 09:26:41;;;;;;;7.57;6.37;;;25.30;64.10;;;;;;10335658;28;20222;-71
2022/05/04 09:31:46;;;;;;;6.83;6.10;;;27.00;57.00;;;;;;10347429;28;20220;-70
2022/05/04 09:47:28;;;;;;;6.80;5.90;;;27.70;51.00;;;;;;10346608;28;20247;-69
2022/05/04 09:52:40;;;;;;;7.90;6.37;;;30.10;47.70;;;;;;10346853;28;20319;-69
2022/05/04 09:57:45;;;;;;;6.00;5.40;;;30.40;44.10;;;;;;10351445;28;20217;-71
2022/05/04 10:02:48;;;;;;;6.80;5.83;;;31.40;42.40;;;;;;10329783;28;20230;-71
2022/05/04 10:07:52;;;;;;;8.47;5.53;;;33.20;40.90;;;;;;10331570;28;20260;-69
2022/05/04 10:12:54;;;;;;;6.27;5.70;;;33.60;37.60;;;;;;10349948;28;20265;-70
2022/05/04 10:18:04;;;;;;;7.07;5.80;;;32.90;38.10;;;;;;10350580;28;20459;-70
2022/05/04 10:23:16;;;;;;;12.27;6.60;;;33.90;37.80;;;;;;10346872;28;20217;-71
2022/05/04 10:28:26;;;;;;;5.97;5.13;;;34.20;37.30;;;;;;10344984;28;20316;-69
2022/05/04 10:33:33;;;;;;;7.27;5.23;;;36.70;34.80;;;;;;10345492;28;20226;-70
2022/05/04 10:38:34;;;;;;;10.27;6.33;;;37.20;33.50;;;;;;10352134;28;20225;-69
2022/05/04 10:43:47;;;;;;;8.93;6.90;;;36.30;32.20;;;;;;10353017;28;20217;-69
2022/05/04 10:48:58;;;;;;;7.93;5.60;;;34.70;35.10;;;;;;10348946;28;20218;-71
2022/05/04 10:54:04;;;;;;;6.83;6.07;;;34.20;34.90;;;;;;10369187;28;20304;-69
2022/05/04 10:59:05;;;;;;;8.77;5.63;;;32.20;37.10;;;;;;10347532;28;20245;-71
2022/05/04 11:04:11;;;;;;;10.37;6.70;;;32.00;38.50;;;;;;10360060;28;20260;-71
2022/05/04 11:09:14;;;;;;;9.20;6.00;;;34.00;35.10;;;;;;10351388;28;20228;-71
2022/05/04 11:14:16;;;;;;;10.20;6.13;;;33.50;35.40;;;;;;10352861;28;20264;-70
2022/05/04 11:19:18;;;;;;;10.23;6.97;;;33.50;35.70;;;;;;10359411;28;20223;-71
2022/05/04 11:24:19;;;;;;;7.53;6.10;;;32.90;36.20;;;;;;10360591;28;20242;-71
2022/05/04 11:29:22;;;;;;;9.93;6.73;;;32.50;36.90;;;;;;10345150;28;20305;-70
2022/05/04 11:34:24;;;;;;;10.67;6.47;;;33.10;36.60;;;;;;10364590;28;20216;-71
2022/05/04 11:39:27;;;;;;;8.07;6.57;;;35.30;34.40;;;;;;10367473;28;20598;-71
2022/05/04 11:44:29;;;;;;;9.53;6.83;;;35.70;32.20;;;;;;10342482;28;20275;-70
2022/05/04 11:49:32;;;;;;;10.93;7.70;;;32.60;36.30;;;;;;10362853;28;20820;-70
2022/05/04 11:54:33;;;;;;;10.07;7.80;;;30.20;40.60;;;;;;10352132;28;20221;-71
2022/05/04 11:59:33;;;;;;;10.90;7.27;;;28.40;43.20;;;;;;10347235;28;20313;-69
2022/05/04 12:04:34;;;;;;;8.60;7.80;;;27.60;45.30;;;;;;10350728;28;20324;-70
2022/05/04 12:09:35;;;;;;;6.03;5.43;;;27.00;46.80;;;;;;10359714;28;20224;-69
2022/05/04 12:14:36;;;;;;;9.33;7.03;;;26.50;46.90;;;;;;10375256;28;20275;-69
2022/05/04 12:19:36;;;;;;;10.70;7.00;;;25.90;47.20;;;;;;10359792;28;20217;-71
2022/05/04 12:24:37;;;;;;;12.57;8.20;;;25.80;48.70;;;;;;10383085;28;20219;-70
2022/05/04 12:34:57;;;;;;;10.97;8.50;;;25.00;50.00;;;;;;10369058;28;20684;-71
2022/05/04 12:40:01;;;;;;;9.63;6.67;;;24.70;50.90;;;;;;10337840;28;20241;-71
2022/05/04 12:45:02;;;;;;;11.90;6.70;;;24.70;52.20;;;;;;10368053;28;20226;-70
2022/05/04 12:50:03;;;;;;;8.03;7.03;;;24.90;51.90;;;;;;10366808;28;20625;-73
2022/05/04 12:55:05;;;;;;;9.20;7.33;;;24.80;52.20;;;;;;10370650;28;20220;-71
2022/05/04 13:00:06;;;;;;;10.00;7.53;;;25.10;51.60;;;;;;10334793;28;20707;-70
2022/05/04 13:05:07;;;;;;;8.30;7.10;;;25.00;50.90;;;;;;10354001;28;20723;-70
2022/05/04 13:10:09;;;;;;;11.50;8.50;;;24.30;52.60;;;;;;10345865;28;20284;-73
2022/05/04 13:15:10;;;;;;;11.93;8.07;;;24.00;53.00;;;;;;10361632;28;20261;-71
2022/05/04 13:20:11;;;;;;;8.90;7.90;;;23.60;53.40;;;;;;10354986;28;20720;-71
2022/05/04 13:25:16;;;;;;;7.07;6.17;;;23.60;52.90;;;;;;10360894;28;20640;-72
2022/05/04 13:30:17;;;;;;;10.83;7.30;;;23.70;53.30;;;;;;10355962;28;20209;-71
2022/05/04 13:35:22;;;;;;;7.50;5.90;;;23.60;52.40;;;;;;10358547;28;20174;-70
2022/05/04 13:40:22;;;;;;;11.10;6.87;;;23.60;52.50;;;;;;10360571;28;20684;-70
2022/05/04 13:45:23;;;;;;;12.03;7.53;;;23.90;52.40;;;;;;10355838;28;20190;-70
2022/05/04 13:55:52;;;;;;;9.93;7.30;;;24.30;52.60;;;;;;10349750;28;20221;-69
2022/05/04 14:00:55;;;;;;;8.77;6.60;;;24.40;51.70;;;;;;10333819;28;20288;-72
2022/05/04 14:05:55;;;;;;;8.37;7.33;;;24.30;51.80;;;;;;10355006;28;20231;-71
2022/05/04 14:10:57;;;;;;;8.40;7.07;;;23.90;52.70;;;;;;10346973;28;20233;-71
2022/05/04 14:15:59;;;;;;;8.43;6.60;;;23.60;52.70;;;;;;10341233;28;20227;-72
2022/05/04 14:21:03;;;;;;;12.33;6.17;;;23.50;52.10;;;;;;10351627;28;20963;-73
2022/05/04 14:26:04;;;;;;;11.27;5.97;;;23.40;52.00;;;;;;10354410;28;20225;-71
2022/05/04 14:31:05;;;;;;;8.30;5.93;;;23.40;51.90;;;;;;10344919;28;20685;-72
2022/05/04 14:36:05;;;;;;;11.77;6.27;;;23.40;53.40;;;;;;10357314;28;20527;-73
2022/05/04 14:41:06;;;;;;;8.40;6.10;;;23.30;53.90;;;;;;10356664;28;20279;-71
2022/05/04 14:46:10;;;;;;;9.33;5.73;;;23.30;54.50;;;;;;10342108;28;20291;-72
2022/05/04 14:51:11;;;;;;;9.33;6.50;;;23.10;55.10;;;;;;10341983;28;20252;-71
2022/05/04 14:56:12;;;;;;;7.23;6.27;;;22.80;55.20;;;;;;10352818;28;20225;-72
2022/05/04 15:01:13;;;;;;;11.73;6.50;;;22.80;56.50;;;;;;10335962;28;20233;-71
2022/05/04 15:06:16;;;;;;;7.80;5.73;;;22.50;56.40;;;;;;10356223;28;20229;-71
2022/05/04 15:11:22;;;;;;;8.73;6.27;;;22.30;56.90;;;;;;10350671;28;20233;-72
2022/05/04 15:16:28;;;;;;;6.40;5.80;;;22.20;57.00;;;;;;10354716;28;20660;-72
2022/05/04 15:21:36;;;;;;;6.70;5.87;;;22.10;57.30;;;;;;10351575;28;20209;-72
2022/05/04 15:26:38;;;;;;;8.97;5.00;;;22.10;57.00;;;;;;10367845;28;20217;-72
2022/05/04 15:31:38;;;;;;;8.43;4.10;;;22.00;57.40;;;;;;10348792;28;20235;-72
2022/05/04 15:36:39;;;;;;;13.53;4.07;;;21.80;59.60;;;;;;10343151;28;20217;-71
2022/05/04 15:41:40;;;;;;;9.63;4.47;;;21.00;62.90;;;;;;10359039;28;20273;-73
2022/05/04 15:46:41;;;;;;;9.03;5.53;;;20.60;66.30;;;;;;10363437;28;20316;-72
2022/05/04 15:51:42;;;;;;;14.47;6.90;;;20.00;79.50;;;;;;10353213;28;20234;-71
2022/05/04 15:56:44;;;;;;;10.67;6.47;;;19.10;90.60;;;;;;10357646;28;20217;-72
2022/05/04 16:01:44;;;;;;;6.83;6.20;;;18.20;97.70;;;;;;10351520;28;20221;-73
2022/05/04 16:06:53;;;;;;;7.80;6.47;;;17.60;99.90;;;;;;10343748;28;20318;-71
2022/05/04 16:11:53;;;;;;;8.77;5.73;;;17.00;99.90;;;;;;10345096;28;20254;-71
2022/05/04 16:22:22;;;;;;;7.80;5.73;;;16.50;99.90;;;;;;10349145;28;20312;-71
2022/05/04 16:27:27;;;;;;;7.07;5.73;;;16.70;99.90;;;;;;10356965;28;20237;-71
2022/05/04 16:32:45;;;;;;;6.97;5.20;;;17.00;99.90;;;;;;10331675;28;20241;-71
2022/05/04 16:37:45;;;;;;;5.20;4.70;;;17.10;99.90;;;;;;10323124;28;20431;-71
2022/05/04 16:42:52;;;;;;;6.10;5.50;;;17.30;99.90;;;;;;10335951;28;20346;-72
2022/05/04 16:47:53;;;;;;;5.17;4.67;;;17.50;99.90;;;;;;10366528;28;20240;-72
2022/05/04 16:52:56;;;;;;;10.03;6.60;;;17.50;99.90;;;;;;10375658;28;20314;-72
2022/05/04 16:57:57;;;;;;;7.67;5.80;;;17.30;99.90;;;;;;10352896;28;20223;-70
2022/05/04 17:02:58;;;;;;;4.77;4.23;;;17.20;99.90;;;;;;10359386;28;20316;-69
2022/05/04 17:07:59;;;;;;;6.77;5.00;;;17.30;99.90;;;;;;10349844;28;20253;-71
2022/05/04 17:12:59;;;;;;;5.87;4.60;;;17.50;99.90;;;;;;10368939;28;20234;-69
2022/05/04 17:18:00;;;;;;;4.37;3.97;;;17.70;99.90;;;;;;10369406;28;20647;-72
2022/05/04 17:23:01;;;;;;;7.57;4.87;;;17.80;99.90;;;;;;10366115;28;20223;-69
2022/05/04 17:28:01;;;;;;;5.87;4.23;;;18.00;99.90;;;;;;10370269;28;20231;-71
2022/05/04 17:38:23;;;;;;;4.83;4.33;;;18.10;99.90;;;;;;10368855;28;20221;-71
2022/05/04 17:43:23;;;;;;;4.83;4.40;;;18.30;99.90;;;;;;10350518;28;20216;-70
2022/05/04 17:48:24;;;;;;;9.37;5.13;;;18.40;99.90;;;;;;10365174;28;20959;-70
2022/05/04 17:53:25;;;;;;;5.40;4.90;;;18.40;99.90;;;;;;10362416;28;20227;-71
2022/05/04 17:58:25;;;;;;;4.90;4.30;;;18.40;99.90;;;;;;10366741;28;20300;-72
2022/05/04 18:03:36;;;;;;;5.40;4.10;;;18.50;99.90;;;;;;10367214;28;20220;-72
2022/05/04 18:08:41;;;;;;;6.00;4.80;;;18.40;99.90;;;;;;10362984;28;20776;-71
2022/05/04 18:13:42;;;;;;;5.77;4.60;;;18.30;99.90;;;;;;10368206;28;20237;-72
2022/05/04 18:18:43;;;;;;;8.13;5.07;;;18.00;99.90;;;;;;10361233;28;20248;-72
2022/05/04 18:23:43;;;;;;;7.10;6.40;;;17.80;99.90;;;;;;10363598;28;20258;-72
2022/05/04 18:28:44;;;;;;;8.17;6.20;;;17.50;99.90;;;;;;10350687;28;20232;-71
2022/05/04 18:33:45;;;;;;;10.30;9.07;;;17.30;99.90;;;;;;10370090;28;20217;-70
2022/05/04 18:38:45;;;;;;;7.73;6.50;;;17.10;99.90;;;;;;10346100;28;20232;-70
2022/05/04 18:43:46;;;;;;;6.53;5.87;;;16.90;99.90;;;;;;10365547;28;20230;-69
2022/05/04 18:48:46;;;;;;;6.77;5.53;;;16.70;99.90;;;;;;10362675;28;20273;-70
2022/05/04 18:53:47;;;;;;;7.10;5.57;;;16.50;99.90;;;;;;10367402;28;20760;-69
2022/05/04 18:58:48;;;;;;;7.27;5.93;;;16.40;99.90;;;;;;10352804;28;20229;-70
2022/05/04 19:03:49;;;;;;;7.30;6.60;;;16.30;99.90;;;;;;10357729;28;20258;-71
2022/05/04 19:08:50;;;;;;;8.57;7.13;;;16.40;99.90;;;;;;10359281;28;20314;-71
2022/05/04 19:13:50;;;;;;;7.30;6.17;;;16.40;99.90;;;;;;10364356;28;20226;-70
2022/05/04 19:18:51;;;;;;;9.67;6.73;;;16.30;99.90;;;;;;10364491;28;20667;-70
2022/05/04 19:23:52;;;;;;;7.13;6.43;;;16.30;99.90;;;;;;10343340;28;20600;-71
2022/05/04 19:28:52;;;;;;;7.23;6.53;;;16.30;99.90;;;;;;10362089;28;20234;-71
2022/05/04 19:33:53;;;;;;;7.03;6.33;;;16.10;99.90;;;;;;10369794;28;20675;-71
2022/05/04 19:38:54;;;;;;;7.93;7.23;;;16.10;99.90;;;;;;10366802;28;20221;-72
2022/05/04 19:43:55;;;;;;;7.93;6.30;;;16.00;99.90;;;;;;10369188;28;20250;-76
2022/05/04 19:48:57;;;;;;;7.50;6.70;;;15.90;99.90;;;;;;10369202;28;20235;-72
2022/05/04 19:53:59;;;;;;;7.83;7.03;;;15.90;99.90;;;;;;10360780;28;20899;-72
2022/05/04 19:58:59;;;;;;;8.43;7.20;;;15.70;99.90;;;;;;10373541;28;20424;-72
2022/05/04 20:04:00;;;;;;;11.80;10.67;;;15.50;99.90;;;;;;10372446;28;20235;-72
2022/05/04 20:09:02;;;;;;;7.10;6.40;;;15.50;99.90;;;;;;10373632;28;20233;-73
2022/05/04 20:14:04;;;;;;;7.73;7.03;;;15.40;99.90;;;;;;10367090;28;20216;-72
2022/05/04 20:19:05;;;;;;;9.37;8.47;;;15.30;99.90;;;;;;10356336;28;20224;-73
2022/05/04 20:24:06;;;;;;;9.00;7.37;;;15.30;99.90;;;;;;10347426;28;20250;-72
2022/05/04 20:29:07;;;;;;;9.23;7.87;;;15.30;99.90;;;;;;10351718;28;20254;-71
2022/05/04 20:34:08;;;;;;;9.40;8.33;;;15.20;99.90;;;;;;10369053;28;20212;-72
2022/05/04 20:39:38;;;;;;;9.90;7.80;;;15.10;99.90;;;;;;10362702;28;20215;-74
2022/05/04 20:44:41;;;;;;;8.40;7.60;;;15.00;99.90;;;;;;10363670;28;20294;-72
2022/05/04 20:49:42;;;;;;;9.43;8.50;;;14.90;99.90;;;;;;10373189;28;20313;-73
2022/05/04 20:54:45;;;;;;;8.77;7.87;;;14.80;99.90;;;;;;10364673;28;20230;-72
2022/05/04 20:59:48;;;;;;;11.53;9.57;;;14.60;99.90;;;;;;10341304;28;20248;-72
2022/05/04 21:04:49;;;;;;;9.33;8.50;;;14.60;99.90;;;;;;10366153;28;20234;-71
2022/05/04 21:09:50;;;;;;;9.77;8.73;;;14.50;99.90;;;;;;10365120;28;20234;-72
2022/05/04 21:14:51;;;;;;;11.53;10.43;;;14.40;99.90;;;;;;10356358;28;20735;-72
2022/05/04 21:19:52;;;;;;;10.50;8.87;;;14.30;99.90;;;;;;10369806;28;20218;-71
2022/05/04 21:24:53;;;;;;;14.00;8.67;;;14.30;99.90;;;;;;10366222;28;20221;-71
2022/05/04 21:29:56;;;;;;;10.73;8.83;;;14.20;99.90;;;;;;10369422;28;20236;-70
2022/05/04 21:34:58;;;;;;;8.93;8.03;;;14.10;99.90;;;;;;10367164;28;20218;-70
2022/05/04 21:39:58;;;;;;;9.63;8.63;;;14.00;99.90;;;;;;10374884;28;20312;-71
2022/05/04 21:44:59;;;;;;;9.97;8.97;;;13.90;99.90;;;;;;10358649;28;20350;-71
2022/05/04 21:50:01;;;;;;;10.33;8.93;;;13.90;99.90;;;;;;10361646;28;20285;-71
2022/05/04 21:55:02;;;;;;;10.27;9.37;;;13.80;99.90;;;;;;10343695;28;20231;-70
2022/05/04 22:00:03;;;;;;;11.63;8.87;;;13.80;99.90;;;;;;10357570;28;20223;-73
2022/05/04 22:05:05;;;;;;;9.70;8.70;;;13.80;99.90;;;;;;10345408;28;20293;-71
2022/05/04 22:10:06;;;;;;;10.23;9.20;;;13.70;99.90;;;;;;10346562;28;20311;-72
2022/05/04 22:15:07;;;;;;;9.73;8.87;;;13.60;99.90;;;;;;10353458;28;20188;-72
2022/05/04 22:20:10;;;;;;;10.27;9.27;;;13.60;99.90;;;;;;10361614;28;20233;-71
2022/05/04 22:25:11;;;;;;;12.43;11.23;;;13.60;99.90;;;;;;10364538;28;20203;-71
2022/05/04 22:30:11;;;;;;;10.23;9.13;;;13.60;99.90;;;;;;10369463;28;20216;-71
2022/05/04 22:35:12;;;;;;;10.87;9.87;;;13.70;99.90;;;;;;10357401;28;20190;-71
2022/05/04 22:40:13;;;;;;;9.90;9.00;;;13.80;99.90;;;;;;10369072;28;20200;-71
2022/05/04 22:45:14;;;;;;;11.33;10.23;;;13.90;99.90;;;;;;10369901;28;20200;-71
2022/05/04 22:50:14;;;;;;;10.20;9.20;;;14.00;99.90;;;;;;10363954;28;20292;-71
2022/05/04 22:55:15;;;;;;;13.53;10.23;;;14.00;99.90;;;;;;10349274;28;20231;-71
2022/05/04 23:00:17;;;;;;;10.57;9.53;;;14.00;99.90;;;;;;10348015;28;20272;-71
2022/05/04 23:05:18;;;;;;;12.60;11.40;;;14.10;99.90;;;;;;10369362;28;20213;-71
2022/05/04 23:10:19;;;;;;;11.93;10.73;;;14.10;99.90;;;;;;10367718;28;20213;-72
2022/05/04 23:20:39;;;;;;;12.33;11.07;;;14.10;99.90;;;;;;10358062;28;20222;-71
2022/05/04 23:25:39;;;;;;;17.27;14.37;;;14.10;99.90;;;;;;10349607;28;20221;-71
2022/05/04 23:30:40;;;;;;;14.40;12.90;;;14.30;99.90;;;;;;10349502;28;20279;-72
2022/05/04 23:35:40;;;;;;;14.10;12.50;;;14.30;99.90;;;;;;10348148;28;20227;-72
2022/05/04 23:40:42;;;;;;;13.90;12.50;;;14.30;99.90;;;;;;10344474;28;20743;-72
2022/05/04 23:45:46;;;;;;;16.33;13.00;;;14.20;99.90;;;;;;10353836;28;20230;-71
2022/05/04 23:50:46;;;;;;;13.87;12.57;;;14.20;99.90;;;;;;10366638;28;20791;-71
2022/05/04 23:55:48;;;;;;;15.20;13.70;;;14.30;99.90;;;;;;10358815;28;20228;-70
